地図

経路データ

SID SEASON NUMBER BASIN SUBBASIN NAME ISO_TIME NATURE LAT LON WMO_WIND WMO_PRES WMO_AGENCY TRACK_TYPE DIST2LAND LANDFALL IFLAG USA_AGENCY USA_ATCF_ID USA_LAT USA_LON USA_RECORD USA_STATUS USA_WIND USA_PRES USA_SSHS USA_R34_NE USA_R34_SE USA_R34_SW USA_R34_NW USA_R50_NE USA_R50_SE USA_R50_SW USA_R50_NW USA_R64_NE USA_R64_SE USA_R64_SW USA_R64_NW USA_POCI USA_ROCI USA_RMW USA_EYE TOKYO_LAT TOKYO_LON TOKYO_GRADE TOKYO_WIND TOKYO_PRES TOKYO_R50_DIR TOKYO_R50_LONG TOKYO_R50_SHORT TOKYO_R30_DIR TOKYO_R30_LONG TOKYO_R30_SHORT TOKYO_LAND CMA_LAT CMA_LON CMA_CAT CMA_WIND CMA_PRES HKO_LAT HKO_LON HKO_CAT HKO_WIND HKO_PRES NEWDELHI_LAT NEWDELHI_LON NEWDELHI_GRADE NEWDELHI_WIND NEWDELHI_PRES NEWDELHI_CI NEWDELHI_DP NEWDELHI_POCI REUNION_LAT REUNION_LON REUNION_TYPE REUNION_WIND REUNION_PRES REUNION_TNUM REUNION_CI REUNION_RMW REUNION_R34_NE REUNION_R34_SE REUNION_R34_SW REUNION_R34_NW REUNION_R50_NE REUNION_R50_SE REUNION_R50_SW REUNION_R50_NW REUNION_R64_NE REUNION_R64_SE REUNION_R64_SW REUNION_R64_NW BOM_LAT BOM_LON BOM_TYPE BOM_WIND BOM_PRES BOM_TNUM BOM_CI BOM_RMW BOM_R34_NE BOM_R34_SE BOM_R34_SW BOM_R34_NW BOM_R50_NE BOM_R50_SE BOM_R50_SW BOM_R50_NW BOM_R64_NE BOM_R64_SE BOM_R64_SW BOM_R64_NW BOM_ROCI BOM_POCI BOM_EYE BOM_POS_METHOD BOM_PRES_METHOD NADI_LAT NADI_LON NADI_CAT NADI_WIND NADI_PRES WELLINGTON_LAT WELLINGTON_LON WELLINGTON_WIND WELLINGTON_PRES DS824_LAT DS824_LON DS824_STAGE DS824_WIND DS824_PRES TD9636_LAT TD9636_LON TD9636_STAGE TD9636_WIND TD9636_PRES TD9635_LAT TD9635_LON TD9635_WIND TD9635_PRES TD9635_ROCI NEUMANN_LAT NEUMANN_LON NEUMANN_CLASS NEUMANN_WIND NEUMANN_PRES MLC_LAT MLC_LON MLC_CLASS MLC_WIND MLC_PRES USA_GUST BOM_GUST BOM_GUST_PER REUNION_GUST REUNION_GUST_PER USA_SEAHGT USA_SEARAD_NE USA_SEARAD_SE USA_SEARAD_SW USA_SEARAD_NW STORM_SPEED STORM_DIR
1973109N24295 1973 45 NA NA NOT_NAMED 1973-04-18 12:00:00 TS 24.0000 -65.0000 20 hurdat_atl main 629 629 O_____________ hurdat_atl AL011973 24.0000 -65.0000 TD 20 -1 5 2
1973109N24295 1973 45 NA NA NOT_NAMED 1973-04-18 15:00:00 TS 24.2500 -65.0000 main 662 662 P_____________ AL011973 24.2500 -65.0000 TD 20 -1 5 2
1973109N24295 1973 45 NA NA NOT_NAMED 1973-04-18 18:00:00 TS 24.5000 -65.0000 20 hurdat_atl main 684 684 O_____________ hurdat_atl AL011973 24.5000 -65.0000 TD 20 -1 5 2
1973109N24295 1973 45 NA NA NOT_NAMED 1973-04-18 21:00:00 TS 24.7500 -65.0000 main 718 707 P_____________ AL011973 24.7500 -65.0000 TD 20 -1 5 2
1973109N24295 1973 45 NA NA NOT_NAMED 1973-04-19 00:00:00 TS 25.0000 -65.0000 20 hurdat_atl main 740 740 O_____________ hurdat_atl AL011973 25.0000 -65.0000 TD 20 -1 5 3
1973109N24295 1973 45 NA NA NOT_NAMED 1973-04-19 03:00:00 TS 25.2125 -65.0000 main 762 762 P_____________ AL011973 25.2125 -65.0000 TD 22 -1 5 2
1973109N24295 1973 45 NA NA NOT_NAMED 1973-04-19 06:00:00 TS 25.5000 -65.0000 25 hurdat_atl main 796 796 O_____________ hurdat_atl AL011973 25.5000 -65.0000 TD 25 -1 8 356
1973109N24295 1973 45 NA NA NOT_NAMED 1973-04-19 09:00:00 TS 26.0373 -65.0598 main 851 851 P_____________ AL011973 26.0373 -65.0598 TD 25 -1 10 1
1973109N24295 1973 45 NA NA NOT_NAMED 1973-04-19 12:00:00 TS 26.5000 -65.0000 25 hurdat_atl main 907 907 O_____________ hurdat_atl AL011973 26.5000 -65.0000 TD 25 -1 6 36
1973109N24295 1973 45 NA NA NOT_NAMED 1973-04-19 15:00:00 TS 26.5378 -64.6519 main 910 910 P_____________ AL011973 26.5378 -64.6519 TD 25 -1 7 90
1973109N24295 1973 45 NA NA NOT_NAMED 1973-04-19 18:00:00 TS 26.5000 -64.2000 25 hurdat_atl main 916 916 O_____________ hurdat_atl AL011973 26.5000 -64.2000 TD 25 -1 7 76
1973109N24295 1973 45 NA NA NOT_NAMED 1973-04-19 21:00:00 TS 26.7124 -63.8427 main 946 946 P_____________ AL011973 26.7124 -63.8427 TD 25 -1 8 51
1973109N24295 1973 45 NA NA NOT_NAMED 1973-04-20 00:00:00 TS 27.0000 -63.5000 25 hurdat_atl main 985 985 O_____________ hurdat_atl AL011973 27.0000 -63.5000 TD 25 -1 8 49
1973109N24295 1973 45 NA NA NOT_NAMED 1973-04-20 03:00:00 TS 27.2499 -63.1573 main 1013 1013 P_____________ AL011973 27.2499 -63.1573 TD 25 -1 8 51
1973109N24295 1973 45 NA NA NOT_NAMED 1973-04-20 06:00:00 TS 27.5000 -62.8000 25 hurdat_atl main 1056 1056 O_____________ hurdat_atl AL011973 27.5000 -62.8000 TD 25 -1 9 48
1973109N24295 1973 45 NA NA NOT_NAMED 1973-04-20 09:00:00 TS 27.8170 -62.4457 main 1100 1100 P_____________ AL011973 27.8170 -62.4457 TD 25 -1 9 55
1973109N24295 1973 45 NA NA NOT_NAMED 1973-04-20 12:00:00 TS 28.0000 -62.0000 25 hurdat_atl main 1134 1134 O_____________ hurdat_atl AL011973 28.0000 -62.0000 TD 25 -1 9 87
1973109N24295 1973 45 NA NA NOT_NAMED 1973-04-20 15:00:00 TS 27.8675 -61.3942 main 1145 1136 P_____________ AL011973 27.8675 -61.3942 TD 22 -1 12 109
1973109N24295 1973 45 NA NA NOT_NAMED 1973-04-20 18:00:00 TS 27.6000 -60.7000 20 hurdat_atl main 1143 1142 O_____________ hurdat_atl AL011973 27.6000 -60.7000 TD 20 -1 13 111
1973109N24295 1973 45 NA NA NOT_NAMED 1973-04-20 21:00:00 TS 27.3923 -60.0076 main 1157 1153 P_____________ AL011973 27.3923 -60.0076 TD 20 -1 13 108
1973109N24295 1973 45 NA NA NOT_NAMED 1973-04-21 00:00:00 TS 27.2000 -59.3000 20 hurdat_atl main 1176 1176 O_____________ hurdat_atl AL011973 27.2000 -59.3000 TD 20 -1 13 105
1973109N24295 1973 45 NA NA NOT_NAMED 1973-04-21 03:00:00 TS 27.0497 -58.6005 main 1199 1199 P_____________ AL011973 27.0497 -58.6005 TD 20 -1 13 104
1973109N24295 1973 45 NA NA NOT_NAMED 1973-04-21 06:00:00 TS 26.9000 -57.9000 20 hurdat_atl main 1234 1234 O_____________ hurdat_atl AL011973 26.9000 -57.9000 TD 20 -1 13 105
1973109N24295 1973 45 NA NA NOT_NAMED 1973-04-21 09:00:00 TS 26.7132 -57.1993 main 1265 1265 P_____________ AL011973 26.7132 -57.1993 TD 20 -1 13 108
1973109N24295 1973 45 NA NA NOT_NAMED 1973-04-21 12:00:00 TS 26.5000 -56.5000 20 hurdat_atl main 1300 O_____________ hurdat_atl AL011973 26.5000 -56.5000 TD 20 -1 13 109

IBTrACS Databaseについて

本データベースは、米国NOAAが公開する1842年以降の世界の熱帯低気圧のベストトラックデータアーカイブInternational Best Track Archive for Climate Stewardship (IBTrACS)を、ウェブで閲覧しやすい形式に変換したものです。

最終更新日:2021-11-26